sensor_id;sensor_type;location;lat;lon;timestamp;pressure;altitude;pressure_sealevel;temperature;humidity
46598;BME280;32318;48.858;8.252;2023-02-14T00:02:03;102236.09;;;2.95;86.18
46598;BME280;32318;48.858;8.252;2023-02-14T00:10:04;102225.53;;;2.95;85.31
46598;BME280;32318;48.858;8.252;2023-02-14T00:18:05;102229.13;;;2.94;85.65
46598;BME280;32318;48.858;8.252;2023-02-14T00:26:12;102216.19;;;2.88;85.96
46598;BME280;32318;48.858;8.252;2023-02-14T00:34:14;102215.00;;;2.95;85.08
46598;BME280;32318;48.858;8.252;2023-02-14T00:42:14;102210.84;;;2.90;85.44
46598;BME280;32318;48.858;8.252;2023-02-14T00:50:15;102216.53;;;2.80;85.94
46598;BME280;32318;48.858;8.252;2023-02-14T00:58:15;102214.84;;;2.78;86.42
46598;BME280;32318;48.858;8.252;2023-02-14T01:06:16;102214.19;;;2.73;85.29
46598;BME280;32318;48.858;8.252;2023-02-14T01:14:16;102218.94;;;2.64;84.78
46598;BME280;32318;48.858;8.252;2023-02-14T01:22:16;102231.84;;;2.71;85.37
46598;BME280;32318;48.858;8.252;2023-02-14T01:30:17;102243.28;;;2.71;85.65
46598;BME280;32318;48.858;8.252;2023-02-14T01:38:17;102232.13;;;2.64;86.01
46598;BME280;32318;48.858;8.252;2023-02-14T01:46:18;102238.25;;;2.65;85.78
46598;BME280;32318;48.858;8.252;2023-02-14T01:54:19;102232.50;;;2.55;84.72
46598;BME280;32318;48.858;8.252;2023-02-14T02:02:22;102227.34;;;2.52;86.08
46598;BME280;32318;48.858;8.252;2023-02-14T02:10:22;102218.41;;;2.56;85.46
46598;BME280;32318;48.858;8.252;2023-02-14T02:18:39;102217.75;;;2.51;86.00
46598;BME280;32318;48.858;8.252;2023-02-14T02:27:10;102219.50;;;2.50;84.63
46598;BME280;32318;48.858;8.252;2023-02-14T02:35:30;102208.47;;;2.41;84.57
46598;BME280;32318;48.858;8.252;2023-02-14T02:43:51;102208.13;;;2.28;84.58
46598;BME280;32318;48.858;8.252;2023-02-14T02:51:54;102203.03;;;2.23;84.38
46598;BME280;32318;48.858;8.252;2023-02-14T03:00:16;102197.06;;;2.18;84.42
46598;BME280;32318;48.858;8.252;2023-02-14T03:08:17;102196.22;;;2.17;84.31
46598;BME280;32318;48.858;8.252;2023-02-14T03:16:23;102187.59;;;2.14;83.93
46598;BME280;32318;48.858;8.252;2023-02-14T03:32:59;102196.66;;;1.83;83.09
46598;BME280;32318;48.858;8.252;2023-02-14T03:41:03;102193.72;;;1.68;83.26
46598;BME280;32318;48.858;8.252;2023-02-14T03:49:08;102207.13;;;1.62;85.19
46598;BME280;32318;48.858;8.252;2023-02-14T03:57:42;102207.38;;;1.78;86.11
46598;BME280;32318;48.858;8.252;2023-02-14T04:05:47;102198.94;;;1.92;84.71
46598;BME280;32318;48.858;8.252;2023-02-14T04:13:51;102200.91;;;1.87;84.24
46598;BME280;32318;48.858;8.252;2023-02-14T04:21:51;102206.19;;;1.63;82.79
46598;BME280;32318;48.858;8.252;2023-02-14T04:29:52;102206.16;;;1.39;85.56
46598;BME280;32318;48.858;8.252;2023-02-14T04:37:52;102212.97;;;1.47;84.29
46598;BME280;32318;48.858;8.252;2023-02-14T04:45:52;102207.63;;;1.23;84.51
46598;BME280;32318;48.858;8.252;2023-02-14T04:53:53;102197.81;;;1.03;84.09
46598;BME280;32318;48.858;8.252;2023-02-14T05:01:53;102192.28;;;0.85;84.96
46598;BME280;32318;48.858;8.252;2023-02-14T05:09:53;102188.00;;;0.83;85.26
46598;BME280;32318;48.858;8.252;2023-02-14T05:17:54;102183.06;;;0.73;86.74
46598;BME280;32318;48.858;8.252;2023-02-14T05:25:54;102186.75;;;0.68;85.91
46598;BME280;32318;48.858;8.252;2023-02-14T05:33:54;102193.63;;;0.72;85.44
46598;BME280;32318;48.858;8.252;2023-02-14T05:41:55;102201.56;;;0.70;87.26
46598;BME280;32318;48.858;8.252;2023-02-14T05:49:55;102197.63;;;0.57;85.83
46598;BME280;32318;48.858;8.252;2023-02-14T05:57:55;102210.06;;;0.52;86.29
46598;BME280;32318;48.858;8.252;2023-02-14T06:05:56;102214.19;;;0.32;85.91
46598;BME280;32318;48.858;8.252;2023-02-14T06:13:56;102216.97;;;0.27;86.14
46598;BME280;32318;48.858;8.252;2023-02-14T06:21:57;102226.81;;;0.21;85.95
46598;BME280;32318;48.858;8.252;2023-02-14T06:29:57;102231.34;;;0.44;86.66
46598;BME280;32318;48.858;8.252;2023-02-14T06:37:58;102235.72;;;0.72;86.91
46598;BME280;32318;48.858;8.252;2023-02-14T06:45:58;102236.41;;;0.77;86.94
46598;BME280;32318;48.858;8.252;2023-02-14T06:53:58;102233.59;;;0.56;85.98
46598;BME280;32318;48.858;8.252;2023-02-14T07:01:59;102242.88;;;0.67;86.66
46598;BME280;32318;48.858;8.252;2023-02-14T07:09:59;102242.41;;;0.54;86.81
46598;BME280;32318;48.858;8.252;2023-02-14T07:17:59;102233.09;;;0.70;86.04
46598;BME280;32318;48.858;8.252;2023-02-14T07:26:00;102235.03;;;0.65;87.67
46598;BME280;32318;48.858;8.252;2023-02-14T07:34:00;102230.00;;;0.84;86.30
46598;BME280;32318;48.858;8.252;2023-02-14T07:42:01;102233.16;;;0.96;86.35
46598;BME280;32318;48.858;8.252;2023-02-14T07:50:01;102244.81;;;0.87;84.90
46598;BME280;32318;48.858;8.252;2023-02-14T07:58:01;102236.75;;;0.66;85.63
46598;BME280;32318;48.858;8.252;2023-02-14T08:06:02;102233.84;;;0.75;85.69
46598;BME280;32318;48.858;8.252;2023-02-14T08:14:03;102242.63;;;0.74;85.66
46598;BME280;32318;48.858;8.252;2023-02-14T08:22:04;102239.09;;;0.75;85.44
46598;BME280;32318;48.858;8.252;2023-02-14T08:30:05;102231.69;;;0.87;85.83
46598;BME280;32318;48.858;8.252;2023-02-14T08:38:06;102244.13;;;0.82;86.08
46598;BME280;32318;48.858;8.252;2023-02-14T08:46:06;102240.44;;;0.87;85.75
46598;BME280;32318;48.858;8.252;2023-02-14T08:54:06;102247.06;;;0.72;85.49
46598;BME280;32318;48.858;8.252;2023-02-14T09:02:11;102238.34;;;0.72;85.28
46598;BME280;32318;48.858;8.252;2023-02-14T09:10:12;102238.66;;;0.88;85.81
46598;BME280;32318;48.858;8.252;2023-02-14T09:18:12;102235.53;;;1.03;85.58
46598;BME280;32318;48.858;8.252;2023-02-14T09:26:14;102234.72;;;1.01;85.32
46598;BME280;32318;48.858;8.252;2023-02-14T09:34:17;102240.28;;;0.92;85.27
46598;BME280;32318;48.858;8.252;2023-02-14T09:50:52;102226.91;;;0.98;86.95
46598;BME280;32318;48.858;8.252;2023-02-14T09:59:02;102215.25;;;1.07;86.42
46598;BME280;32318;48.858;8.252;2023-02-14T10:15:38;102222.25;;;1.06;86.27
46598;BME280;32318;48.858;8.252;2023-02-14T10:23:48;102224.06;;;1.04;86.30
46598;BME280;32318;48.858;8.252;2023-02-14T10:31:56;102223.53;;;0.94;86.56
46598;BME280;32318;48.858;8.252;2023-02-14T11:04:37;102187.47;;;1.23;87.10
46598;BME280;32318;48.858;8.252;2023-02-14T11:12:39;102189.47;;;1.40;86.82
46598;BME280;32318;48.858;8.252;2023-02-14T11:20:39;102164.34;;;1.55;86.41
46598;BME280;32318;48.858;8.252;2023-02-14T11:28:50;102162.59;;;1.56;86.95
46598;BME280;32318;48.858;8.252;2023-02-14T11:36:52;102148.13;;;1.66;86.59
46598;BME280;32318;48.858;8.252;2023-02-14T11:44:54;102129.84;;;1.63;87.31
46598;BME280;32318;48.858;8.252;2023-02-14T11:52:55;102135.00;;;1.88;86.39
46598;BME280;32318;48.858;8.252;2023-02-14T12:00:56;102130.63;;;1.65;85.14
46598;BME280;32318;48.858;8.252;2023-02-14T12:17:28;102101.25;;;1.76;86.34
46598;BME280;32318;48.858;8.252;2023-02-14T12:25:46;102096.22;;;1.92;86.05
46598;BME280;32318;48.858;8.252;2023-02-14T12:33:49;102094.47;;;1.70;85.27
46598;BME280;32318;48.858;8.252;2023-02-14T12:58:49;102069.09;;;1.90;85.34
46598;BME280;32318;48.858;8.252;2023-02-14T13:15:35;102059.59;;;1.64;86.35
46598;BME280;32318;48.858;8.252;2023-02-14T13:23:43;102039.00;;;1.73;85.73
46598;BME280;32318;48.858;8.252;2023-02-14T13:31:45;102035.09;;;1.84;85.56
46598;BME280;32318;48.858;8.252;2023-02-14T13:39:56;102026.34;;;1.83;84.73
46598;BME280;32318;48.858;8.252;2023-02-14T14:28:29;101981.66;;;2.02;86.15
46598;BME280;32318;48.858;8.252;2023-02-14T14:36:30;101972.56;;;2.10;86.33
46598;BME280;32318;48.858;8.252;2023-02-14T14:44:33;101966.16;;;2.15;86.20
46598;BME280;32318;48.858;8.252;2023-02-14T14:52:40;101964.13;;;2.22;86.04
46598;BME280;32318;48.858;8.252;2023-02-14T15:00:50;101952.25;;;2.32;86.57
46598;BME280;32318;48.858;8.252;2023-02-14T15:08:50;101947.50;;;2.41;87.11
46598;BME280;32318;48.858;8.252;2023-02-14T15:16:52;101935.47;;;2.54;86.68
46598;BME280;32318;48.858;8.252;2023-02-14T15:24:56;101937.56;;;2.66;86.42
46598;BME280;32318;48.858;8.252;2023-02-14T15:32:57;101934.47;;;2.76;86.58
46598;BME280;32318;48.858;8.252;2023-02-14T15:40:58;101943.25;;;2.76;86.47
46598;BME280;32318;48.858;8.252;2023-02-14T15:49:00;101936.69;;;2.85;85.99
46598;BME280;32318;48.858;8.252;2023-02-14T15:57:06;101934.03;;;3.04;85.56
46598;BME280;32318;48.858;8.252;2023-02-14T16:05:19;101935.63;;;3.26;85.26
46598;BME280;32318;48.858;8.252;2023-02-14T16:13:28;101932.63;;;3.34;85.32
46598;BME280;32318;48.858;8.252;2023-02-14T16:21:30;101936.84;;;3.38;84.65
46598;BME280;32318;48.858;8.252;2023-02-14T16:29:34;101931.56;;;3.38;84.98
46598;BME280;32318;48.858;8.252;2023-02-14T16:37:35;101924.56;;;3.37;84.56
46598;BME280;32318;48.858;8.252;2023-02-14T16:45:37;101925.63;;;3.33;84.83
46598;BME280;32318;48.858;8.252;2023-02-14T16:53:37;101933.19;;;3.21;84.65
46598;BME280;32318;48.858;8.252;2023-02-14T17:01:37;101940.38;;;3.19;84.49
46598;BME280;32318;48.858;8.252;2023-02-14T17:09:40;101947.50;;;3.17;84.81
46598;BME280;32318;48.858;8.252;2023-02-14T17:17:43;101948.13;;;3.22;84.97
46598;BME280;32318;48.858;8.252;2023-02-14T17:25:47;101952.94;;;3.32;84.03
46598;BME280;32318;48.858;8.252;2023-02-14T17:33:48;101948.59;;;3.30;84.32
46598;BME280;32318;48.858;8.252;2023-02-14T17:41:48;101940.53;;;3.34;84.70
46598;BME280;32318;48.858;8.252;2023-02-14T17:49:48;101937.72;;;3.19;84.88
46598;BME280;32318;48.858;8.252;2023-02-14T17:57:48;101937.88;;;3.16;85.08
46598;BME280;32318;48.858;8.252;2023-02-14T18:05:51;101934.16;;;3.20;85.21
46598;BME280;32318;48.858;8.252;2023-02-14T18:13:55;101930.97;;;3.13;85.17
46598;BME280;32318;48.858;8.252;2023-02-14T18:21:57;101927.00;;;2.86;85.18
46598;BME280;32318;48.858;8.252;2023-02-14T18:29:57;101921.34;;;2.93;85.64
46598;BME280;32318;48.858;8.252;2023-02-14T18:37:57;101924.91;;;2.92;85.44
46598;BME280;32318;48.858;8.252;2023-02-14T18:46:06;101913.59;;;2.71;85.11
46598;BME280;32318;48.858;8.252;2023-02-14T18:54:06;101906.97;;;2.62;85.73
46598;BME280;32318;48.858;8.252;2023-02-14T19:02:07;101915.66;;;2.64;86.09
46598;BME280;32318;48.858;8.252;2023-02-14T19:10:08;101919.22;;;2.63;86.04
46598;BME280;32318;48.858;8.252;2023-02-14T19:18:09;101912.19;;;2.64;86.27
46598;BME280;32318;48.858;8.252;2023-02-14T19:26:17;101908.31;;;2.52;86.03
46598;BME280;32318;48.858;8.252;2023-02-14T19:34:22;101895.56;;;2.43;85.93
46598;BME280;32318;48.858;8.252;2023-02-14T19:42:23;101895.47;;;2.25;85.88
46598;BME280;32318;48.858;8.252;2023-02-14T19:50:23;101882.56;;;2.19;86.44
46598;BME280;32318;48.858;8.252;2023-02-14T19:58:24;101878.50;;;2.12;86.36
46598;BME280;32318;48.858;8.252;2023-02-14T20:06:25;101861.19;;;2.06;85.92
46598;BME280;32318;48.858;8.252;2023-02-14T20:14:32;101850.63;;;1.87;86.50
46598;BME280;32318;48.858;8.252;2023-02-14T20:22:33;101851.59;;;1.84;86.75
46598;BME280;32318;48.858;8.252;2023-02-14T20:30:37;101838.84;;;1.75;86.29
46598;BME280;32318;48.858;8.252;2023-02-14T20:38:38;101833.63;;;1.73;86.96
46598;BME280;32318;48.858;8.252;2023-02-14T20:46:38;101826.81;;;1.69;87.34
46598;BME280;32318;48.858;8.252;2023-02-14T20:54:40;101822.25;;;1.73;87.38
46598;BME280;32318;48.858;8.252;2023-02-14T21:02:40;101817.97;;;1.70;87.42
46598;BME280;32318;48.858;8.252;2023-02-14T21:10:40;101800.06;;;1.79;86.88
46598;BME280;32318;48.858;8.252;2023-02-14T21:18:42;101803.91;;;1.71;87.27
46598;BME280;32318;48.858;8.252;2023-02-14T21:26:46;101808.09;;;1.76;87.45
46598;BME280;32318;48.858;8.252;2023-02-14T21:34:47;101800.66;;;1.85;89.26
46598;BME280;32318;48.858;8.252;2023-02-14T21:42:47;101797.53;;;1.96;88.04
46598;BME280;32318;48.858;8.252;2023-02-14T21:50:47;101790.66;;;1.92;87.46
46598;BME280;32318;48.858;8.252;2023-02-14T21:58:49;101790.38;;;1.79;88.93
46598;BME280;32318;48.858;8.252;2023-02-14T22:06:51;101794.59;;;1.83;88.44
46598;BME280;32318;48.858;8.252;2023-02-14T22:14:51;101788.44;;;1.83;88.38
46598;BME280;32318;48.858;8.252;2023-02-14T22:22:51;101789.41;;;1.82;88.37
46598;BME280;32318;48.858;8.252;2023-02-14T22:30:51;101792.78;;;1.65;88.37
46598;BME280;32318;48.858;8.252;2023-02-14T22:38:52;101782.38;;;1.62;88.09
46598;BME280;32318;48.858;8.252;2023-02-14T22:46:52;101777.78;;;1.67;89.72
46598;BME280;32318;48.858;8.252;2023-02-14T22:54:52;101776.06;;;1.66;87.91
46598;BME280;32318;48.858;8.252;2023-02-14T23:02:52;101775.34;;;1.62;89.20
46598;BME280;32318;48.858;8.252;2023-02-14T23:10:53;101773.06;;;1.73;90.03
46598;BME280;32318;48.858;8.252;2023-02-14T23:18:53;101778.50;;;1.70;89.37
46598;BME280;32318;48.858;8.252;2023-02-14T23:27:12;101775.13;;;1.67;88.45
46598;BME280;32318;48.858;8.252;2023-02-14T23:35:14;101767.66;;;1.58;88.98
46598;BME280;32318;48.858;8.252;2023-02-14T23:43:14;101772.84;;;1.59;90.13
46598;BME280;32318;48.858;8.252;2023-02-14T23:51:14;101765.53;;;1.66;90.25
46598;BME280;32318;48.858;8.252;2023-02-14T23:59:15;101770.59;;;1.70;89.65
